Time;durP1;ratioP1;P1;durP2;ratioP2;P2;SDS_P1;SDS_P2;PMS_P1;PMS_P2;Temp;Humidity;BMP_temperature;BMP_pressure;BME280_temperature;BME280_humidity;BME280_pressure;Samples;Min_cycle;Max_cycle;Signal;HPM_P1;HPM_P2
2022/09/06 00:02:24;;;;;;;11.53;7.87;;;;;;;;;;5052773;28;20025;-73
2022/09/06 00:04:50;;;;;;;10.52;7.90;;;;;;;;;;5052569;28;20269;-74
2022/09/06 00:07:15;;;;;;;9.57;7.45;;;;;;;;;;5052447;28;20540;-74
2022/09/06 00:09:40;;;;;;;10.25;8.25;;;;;;;;;;5051877;28;20359;-74
2022/09/06 00:12:05;;;;;;;9.03;7.80;;;;;;;;;;5052838;28;20033;-75
2022/09/06 00:14:31;;;;;;;9.40;7.95;;;;;;;;;;5052810;28;20254;-75
2022/09/06 00:16:56;;;;;;;14.60;7.73;;;;;;;;;;5052477;28;20548;-75
2022/09/06 00:19:21;;;;;;;11.50;8.00;;;;;;;;;;5052942;28;20297;-73
2022/09/06 00:21:46;;;;;;;10.40;7.90;;;;;;;;;;5057685;28;20679;-73
2022/09/06 00:24:11;;;;;;;9.97;7.63;;;;;;;;;;5057750;28;20670;-73
2022/09/06 00:26:37;;;;;;;11.83;8.00;;;;;;;;;;5057585;28;20262;-74
2022/09/06 00:29:02;;;;;;;10.15;7.80;;;;;;;;;;5056455;28;20687;-75
2022/09/06 00:31:27;;;;;;;11.40;7.70;;;;;;;;;;5057449;28;20043;-74
2022/09/06 00:33:53;;;;;;;9.07;7.40;;;;;;;;;;5057359;28;20262;-73
2022/09/06 00:36:20;;;;;;;11.95;7.72;;;;;;;;;;5057190;28;20379;-74
2022/09/06 00:38:45;;;;;;;10.52;7.43;;;;;;;;;;5061670;28;20072;-75
2022/09/06 00:41:12;;;;;;;12.32;7.90;;;;;;;;;;5060488;28;20402;-75
2022/09/06 00:43:38;;;;;;;10.70;7.65;;;;;;;;;;5060479;28;20111;-74
2022/09/06 00:46:05;;;;;;;10.02;7.45;;;;;;;;;;5063128;28;20079;-73
2022/09/06 00:48:32;;;;;;;10.35;7.78;;;;;;;;;;5059062;28;20032;-74
2022/09/06 00:51:00;;;;;;;9.55;7.28;;;;;;;;;;5055915;28;20543;-75
2022/09/06 00:53:26;;;;;;;10.93;7.70;;;;;;;;;;5055772;28;20090;-74
2022/09/06 00:55:51;;;;;;;9.93;7.55;;;;;;;;;;5055579;28;20486;-75
2022/09/06 00:58:17;;;;;;;9.60;7.88;;;;;;;;;;5054282;28;20025;-75
2022/09/06 01:00:43;;;;;;;9.50;7.70;;;;;;;;;;5055606;28;20025;-74
2022/09/06 01:03:09;;;;;;;9.13;7.18;;;;;;;;;;5055632;28;20159;-75
2022/09/06 01:05:56;;;;;;;9.25;7.53;;;;;;;;;;5055580;28;20459;-76
2022/09/06 01:08:45;;;;;;;10.77;7.32;;;;;;;;;;5055768;28;20108;-75
2022/09/06 01:11:29;;;;;;;9.23;6.78;;;;;;;;;;5055740;28;20017;-75
2022/09/06 01:14:09;;;;;;;8.18;6.32;;;;;;;;;;5055488;28;20017;-74
2022/09/06 01:16:41;;;;;;;10.35;6.80;;;;;;;;;;5055520;28;20020;-74
2022/09/06 01:19:42;;;;;;;8.75;6.82;;;;;;;;;;5055599;28;20028;-75
2022/09/06 01:22:16;;;;;;;9.23;6.63;;;;;;;;;;5055506;28;20532;-75
2022/09/06 01:24:53;;;;;;;;;;;;;;;;;;5054389;28;20039;-74
2022/09/06 01:27:18;;;;;;;8.02;6.50;;;;;;;;;;5055293;28;19919;-74
2022/09/06 01:29:49;;;;;;;8.47;7.10;;;;;;;;;;5055361;28;20024;-74
2022/09/06 01:32:53;;;;;;;7.70;6.57;;;;;;;;;;5055212;28;20039;-75
2022/09/06 01:35:39;;;;;;;8.25;6.50;;;;;;;;;;5054924;28;20032;-75
2022/09/06 01:38:06;;;;;;;8.30;6.35;;;;;;;;;;5055199;28;20032;-75
2022/09/06 01:40:35;;;;;;;8.38;6.65;;;;;;;;;;5054865;28;20020;-75
2022/09/06 01:43:02;;;;;;;8.82;6.70;;;;;;;;;;5053592;28;20124;-74
2022/09/06 01:46:01;;;;;;;11.25;6.45;;;;;;;;;;5054937;28;20107;-75
2022/09/06 01:48:39;;;;;;;11.55;7.05;;;;;;;;;;5053788;28;20021;-75
2022/09/06 01:51:25;;;;;;;8.50;6.38;;;;;;;;;;5054971;28;20124;-75
2022/09/06 01:54:05;;;;;;;7.43;6.13;;;;;;;;;;5054920;28;20036;-75
2022/09/06 01:56:38;;;;;;;8.50;6.07;;;;;;;;;;5054711;28;20482;-75
2022/09/06 01:59:40;;;;;;;6.95;6.05;;;;;;;;;;5054653;28;20463;-75
2022/09/06 02:02:12;;;;;;;10.20;6.05;;;;;;;;;;5054444;28;20029;-73
2022/09/06 02:05:07;;;;;;;12.05;6.25;;;;;;;;;;5053267;28;20049;-75
2022/09/06 02:07:35;;;;;;;7.22;5.97;;;;;;;;;;5053813;28;20044;-76
2022/09/06 02:10:25;;;;;;;9.68;6.20;;;;;;;;;;5054546;28;20021;-75
2022/09/06 02:12:54;;;;;;;8.43;6.50;;;;;;;;;;5054646;28;20033;-74
2022/09/06 02:15:23;;;;;;;7.85;5.80;;;;;;;;;;5054148;28;20425;-74
2022/09/06 02:17:59;;;;;;;10.77;6.45;;;;;;;;;;5053050;28;20029;-75
2022/09/06 02:20:30;;;;;;;11.48;6.43;;;;;;;;;;5054380;28;20414;-74
2022/09/06 02:22:58;;;;;;;12.15;6.43;;;;;;;;;;5054434;28;20509;-75
2022/09/06 02:25:28;;;;;;;8.18;5.72;;;;;;;;;;5054181;28;20033;-75
2022/09/06 02:27:54;;;;;;;9.70;6.18;;;;;;;;;;5054058;28;20532;-74
2022/09/06 02:30:19;;;;;;;8.02;6.70;;;;;;;;;;5052644;28;20116;-74
2022/09/06 02:32:55;;;;;;;9.27;6.20;;;;;;;;;;5053965;28;20031;-73
2022/09/06 02:35:20;;;;;;;10.05;6.13;;;;;;;;;;5053071;28;20115;-74
2022/09/06 02:37:46;;;;;;;8.87;6.70;;;;;;;;;;5054118;28;20120;-74
2022/09/06 02:40:11;;;;;;;11.15;6.78;;;;;;;;;;5053764;28;20273;-75
2022/09/06 02:42:37;;;;;;;9.93;7.05;;;;;;;;;;5052429;28;20489;-74
2022/09/06 02:45:04;;;;;;;7.78;6.25;;;;;;;;;;5053647;28;20436;-75
2022/09/06 02:47:29;;;;;;;7.63;6.28;;;;;;;;;;5052577;28;20036;-73
2022/09/06 02:49:54;;;;;;;9.82;7.00;;;;;;;;;;5053848;28;20501;-74
2022/09/06 02:52:19;;;;;;;8.87;6.90;;;;;;;;;;5053518;28;20029;-74
2022/09/06 02:54:45;;;;;;;11.00;7.30;;;;;;;;;;5053488;28;20261;-74
2022/09/06 02:57:10;;;;;;;8.32;7.00;;;;;;;;;;5053475;28;20254;-75
2022/09/06 02:59:35;;;;;;;9.20;7.00;;;;;;;;;;5053734;28;20104;-74
2022/09/06 03:02:00;;;;;;;11.70;7.50;;;;;;;;;;5052019;28;20027;-74
2022/09/06 03:04:26;;;;;;;10.25;7.07;;;;;;;;;;5053817;28;20054;-75
2022/09/06 03:06:51;;;;;;;9.20;7.38;;;;;;;;;;5053163;28;20481;-74
2022/09/06 03:09:16;;;;;;;9.33;7.53;;;;;;;;;;5053462;28;20056;-74
2022/09/06 03:11:41;;;;;;;13.20;7.80;;;;;;;;;;5051957;28;20309;-74
2022/09/06 03:14:07;;;;;;;8.90;7.30;;;;;;;;;;5053430;28;20266;-76
2022/09/06 03:16:33;;;;;;;8.95;7.25;;;;;;;;;;5053423;28;20256;-74
2022/09/06 03:18:58;;;;;;;9.10;7.65;;;;;;;;;;5053008;28;20079;-74
2022/09/06 03:21:23;;;;;;;9.82;8.13;;;;;;;;;;5053079;28;20032;-74
2022/09/06 03:23:49;;;;;;;8.93;7.33;;;;;;;;;;5052979;28;20474;-75
2022/09/06 03:26:15;;;;;;;8.70;7.68;;;;;;;;;;5052912;28;20805;-74
2022/09/06 03:28:41;;;;;;;13.47;7.97;;;;;;;;;;5052967;28;20028;-73
2022/09/06 03:31:07;;;;;;;9.48;7.43;;;;;;;;;;5051717;28;20274;-74
2022/09/06 03:33:32;;;;;;;11.43;7.57;;;;;;;;;;5052901;28;20478;-74
2022/09/06 03:35:59;;;;;;;12.02;7.97;;;;;;;;;;5052797;28;20122;-74
2022/09/06 03:38:26;;;;;;;13.70;7.85;;;;;;;;;;5053503;28;20044;-74
2022/09/06 03:40:52;;;;;;;11.18;8.15;;;;;;;;;;5051515;28;20025;-75
2022/09/06 03:43:18;;;;;;;9.80;7.55;;;;;;;;;;5052790;28;20034;-74
2022/09/06 03:45:49;;;;;;;9.85;7.72;;;;;;;;;;5052973;28;20482;-74
2022/09/06 03:48:15;;;;;;;9.57;7.80;;;;;;;;;;5051810;28;20111;-74
2022/09/06 03:50:45;;;;;;;9.32;7.82;;;;;;;;;;5053161;28;20032;-74
2022/09/06 03:53:10;;;;;;;10.02;7.25;;;;;;;;;;5052696;28;20032;-74
2022/09/06 03:55:36;;;;;;;10.57;7.82;;;;;;;;;;5052780;28;20390;-74
2022/09/06 03:58:01;;;;;;;14.02;7.60;;;;;;;;;;5052924;28;20025;-75
2022/09/06 04:00:26;;;;;;;10.27;7.18;;;;;;;;;;5052764;28;20073;-74
2022/09/06 04:02:52;;;;;;;10.38;7.85;;;;;;;;;;5052702;28;20049;-75
2022/09/06 04:05:17;;;;;;;10.83;7.23;;;;;;;;;;5052484;28;20056;-75
2022/09/06 04:07:42;;;;;;;10.52;7.57;;;;;;;;;;5052506;28;20261;-75
2022/09/06 04:10:08;;;;;;;8.82;7.28;;;;;;;;;;5052558;28;20025;-75
2022/09/06 04:12:33;;;;;;;10.27;7.90;;;;;;;;;;5053684;28;20036;-75
2022/09/06 04:14:59;;;;;;;12.57;7.60;;;;;;;;;;5056503;28;20509;-75
2022/09/06 04:17:24;;;;;;;10.57;7.75;;;;;;;;;;5056395;28;20025;-74
2022/09/06 04:19:49;;;;;;;10.37;8.03;;;;;;;;;;5056547;28;20025;-75
2022/09/06 04:22:14;;;;;;;11.27;7.90;;;;;;;;;;5056634;28;20265;-75
2022/09/06 04:24:39;;;;;;;10.23;8.10;;;;;;;;;;5055878;28;20353;-78
2022/09/06 04:27:05;;;;;;;10.97;8.70;;;;;;;;;;5057733;28;20270;-78
2022/09/06 04:29:30;;;;;;;9.85;7.43;;;;;;;;;;5057677;28;20250;-76
2022/09/06 04:31:55;;;;;;;11.70;8.07;;;;;;;;;;5058769;28;20112;-77
2022/09/06 04:34:20;;;;;;;12.90;9.93;;;;;;;;;;5055328;28;20309;-77
2022/09/06 04:36:45;;;;;;;9.93;7.95;;;;;;;;;;5056293;28;20253;-77
2022/09/06 04:39:11;;;;;;;14.07;8.10;;;;;;;;;;5055806;28;20078;-78
2022/09/06 04:41:36;;;;;;;11.80;7.87;;;;;;;;;;5056818;28;20258;-77
2022/09/06 04:44:01;;;;;;;9.68;7.72;;;;;;;;;;5056155;28;20343;-77
2022/09/06 04:46:28;;;;;;;13.10;8.82;;;;;;;;;;5057364;28;20112;-78
2022/09/06 04:48:55;;;;;;;11.80;8.57;;;;;;;;;;5058828;28;20389;-78
2022/09/06 04:51:21;;;;;;;12.60;7.90;;;;;;;;;;5056236;28;20028;-76
2022/09/06 04:53:46;;;;;;;10.48;8.15;;;;;;;;;;5055388;28;20107;-77
2022/09/06 04:56:14;;;;;;;11.27;7.63;;;;;;;;;;5056056;28;20033;-76
2022/09/06 04:58:41;;;;;;;10.80;6.93;;;;;;;;;;5056585;28;20079;-76
2022/09/06 05:01:06;;;;;;;9.88;7.32;;;;;;;;;;5055814;28;20024;-76
2022/09/06 05:03:31;;;;;;;9.38;7.38;;;;;;;;;;5054469;28;20021;-76
2022/09/06 05:06:08;;;;;;;11.55;7.38;;;;;;;;;;5055469;28;20040;-76
2022/09/06 05:08:35;;;;;;;10.70;7.18;;;;;;;;;;5055992;28;20045;-76
2022/09/06 05:11:00;;;;;;;8.90;7.22;;;;;;;;;;5055839;28;20025;-75
2022/09/06 05:13:26;;;;;;;13.13;7.47;;;;;;;;;;5056533;28;20029;-75
2022/09/06 05:15:51;;;;;;;10.27;7.63;;;;;;;;;;5055821;28;20029;-74
2022/09/06 05:18:16;;;;;;;10.53;7.30;;;;;;;;;;5055828;28;20254;-75
2022/09/06 05:20:41;;;;;;;10.90;7.70;;;;;;;;;;5056025;28;20258;-75
2022/09/06 05:23:07;;;;;;;14.40;7.70;;;;;;;;;;5054700;28;20664;-76
2022/09/06 05:25:32;;;;;;;12.75;7.60;;;;;;;;;;5055712;28;20258;-75
2022/09/06 05:27:58;;;;;;;17.50;8.20;;;;;;;;;;5056000;28;20033;-76
2022/09/06 05:30:23;;;;;;;12.10;7.20;;;;;;;;;;5055977;28;20339;-75
2022/09/06 05:32:49;;;;;;;10.95;7.22;;;;;;;;;;5055868;28;20650;-75
2022/09/06 05:35:15;;;;;;;10.88;7.00;;;;;;;;;;5056278;28;20424;-75
2022/09/06 05:37:40;;;;;;;10.57;7.07;;;;;;;;;;5056469;28;20104;-76
2022/09/06 05:40:06;;;;;;;12.60;7.40;;;;;;;;;;5054772;28;20786;-76
2022/09/06 05:42:31;;;;;;;12.30;7.47;;;;;;;;;;5056033;28;20778;-75
2022/09/06 05:44:56;;;;;;;11.32;7.30;;;;;;;;;;5055941;28;20450;-75
2022/09/06 05:47:21;;;;;;;14.57;7.40;;;;;;;;;;5055669;28;20024;-75
2022/09/06 05:49:46;;;;;;;13.47;7.33;;;;;;;;;;5055595;28;20360;-76
2022/09/06 05:52:12;;;;;;;10.97;6.97;;;;;;;;;;5055252;28;20298;-76
2022/09/06 05:54:37;;;;;;;10.33;7.00;;;;;;;;;;5055267;28;20266;-75
2022/09/06 05:57:03;;;;;;;9.13;6.60;;;;;;;;;;5055028;28;20258;-75
2022/09/06 05:59:28;;;;;;;9.60;6.43;;;;;;;;;;5055237;28;20028;-75
2022/09/06 06:01:53;;;;;;;9.73;6.47;;;;;;;;;;5055098;28;20028;-76
2022/09/06 06:04:19;;;;;;;13.32;6.68;;;;;;;;;;5053585;28;20348;-75
2022/09/06 06:06:45;;;;;;;12.15;6.85;;;;;;;;;;5054918;28;20043;-75
2022/09/06 06:09:12;;;;;;;17.58;6.60;;;;;;;;;;5056302;28;20058;-75
2022/09/06 06:11:38;;;;;;;8.35;6.32;;;;;;;;;;5055196;28;20383;-75
2022/09/06 06:14:03;;;;;;;14.60;6.30;;;;;;;;;;5055680;28;20033;-75
2022/09/06 06:16:29;;;;;;;9.73;6.05;;;;;;;;;;5053987;28;20075;-76
2022/09/06 06:18:54;;;;;;;10.88;6.35;;;;;;;;;;5053764;28;20025;-76
2022/09/06 06:21:21;;;;;;;10.63;5.57;;;;;;;;;;5055482;28;20394;-75
2022/09/06 06:23:50;;;;;;;6.63;4.90;;;;;;;;;;5055019;28;20025;-75
2022/09/06 06:26:15;;;;;;;8.18;4.60;;;;;;;;;;5055678;28;20104;-76
2022/09/06 06:28:41;;;;;;;8.55;4.70;;;;;;;;;;5055041;28;20064;-75
2022/09/06 06:31:08;;;;;;;9.68;4.88;;;;;;;;;;5053343;28;20039;-75
2022/09/06 06:33:35;;;;;;;6.18;4.25;;;;;;;;;;5054463;28;20024;-76
2022/09/06 06:36:17;;;;;;;9.18;4.65;;;;;;;;;;5052491;28;20021;-76
2022/09/06 06:38:44;;;;;;;8.77;4.63;;;;;;;;;;5054312;28;20025;-75
2022/09/06 06:41:11;;;;;;;6.55;4.88;;;;;;;;;;5052606;28;20074;-75
2022/09/06 06:43:37;;;;;;;8.45;4.68;;;;;;;;;;5054160;28;20028;-75
2022/09/06 06:46:03;;;;;;;5.38;4.47;;;;;;;;;;5054008;28;20390;-75
2022/09/06 06:48:28;;;;;;;8.25;4.38;;;;;;;;;;5053636;28;20093;-75
2022/09/06 06:50:53;;;;;;;7.00;4.13;;;;;;;;;;5052346;28;20036;-75
2022/09/06 06:53:18;;;;;;;5.20;4.38;;;;;;;;;;5053606;28;20258;-75
2022/09/06 06:55:46;;;;;;;6.07;4.53;;;;;;;;;;5052346;28;20098;-76
2022/09/06 06:58:11;;;;;;;6.32;4.78;;;;;;;;;;5052328;28;20790;-76
2022/09/06 07:00:36;;;;;;;5.83;4.53;;;;;;;;;;5052293;28;20029;-76
2022/09/06 07:03:02;;;;;;;5.47;4.43;;;;;;;;;;5053617;28;20258;-76
2022/09/06 07:05:27;;;;;;;5.28;4.30;;;;;;;;;;5053756;28;20273;-76
2022/09/06 07:07:52;;;;;;;5.50;4.18;;;;;;;;;;5052350;28;20021;-76
2022/09/06 07:10:17;;;;;;;6.80;4.20;;;;;;;;;;5052324;28;20510;-76
2022/09/06 07:12:43;;;;;;;5.67;4.27;;;;;;;;;;5053501;28;20624;-76
2022/09/06 07:15:08;;;;;;;5.55;4.10;;;;;;;;;;5053788;28;20257;-76
2022/09/06 07:17:34;;;;;;;9.40;4.10;;;;;;;;;;5052116;28;20049;-76
2022/09/06 07:19:59;;;;;;;5.75;4.30;;;;;;;;;;5053615;28;20540;-76
2022/09/06 07:22:25;;;;;;;5.97;4.40;;;;;;;;;;5052291;28;20497;-76
2022/09/06 07:24:50;;;;;;;6.37;3.83;;;;;;;;;;5052245;28;20028;-76
2022/09/06 07:27:15;;;;;;;5.28;4.03;;;;;;;;;;5052161;28;20262;-76
2022/09/06 07:29:41;;;;;;;6.93;4.57;;;;;;;;;;5053615;28;20021;-76
2022/09/06 07:32:06;;;;;;;7.07;3.90;;;;;;;;;;5052455;28;20417;-76
2022/09/06 07:34:32;;;;;;;5.60;3.83;;;;;;;;;;5053346;28;20273;-76
2022/09/06 07:36:57;;;;;;;6.90;3.90;;;;;;;;;;5053048;28;20757;-74
2022/09/06 07:39:23;;;;;;;6.45;4.28;;;;;;;;;;5052795;28;20021;-75
2022/09/06 07:41:48;;;;;;;5.70;3.97;;;;;;;;;;5053153;28;20031;-75
2022/09/06 07:44:14;;;;;;;5.50;4.07;;;;;;;;;;5051781;28;20104;-75
2022/09/06 07:46:39;;;;;;;6.13;4.50;;;;;;;;;;5052051;28;20432;-76
2022/09/06 07:49:05;;;;;;;5.22;4.45;;;;;;;;;;5053201;28;20063;-75
2022/09/06 07:51:30;;;;;;;6.85;4.55;;;;;;;;;;5053026;28;20061;-75
2022/09/06 07:53:56;;;;;;;5.70;4.32;;;;;;;;;;5052933;28;20024;-75
2022/09/06 07:56:23;;;;;;;5.40;4.22;;;;;;;;;;5053112;28;20401;-75
2022/09/06 07:58:49;;;;;;;5.07;3.90;;;;;;;;;;5052693;28;20382;-75
2022/09/06 08:01:33;;;;;;;7.75;4.22;;;;;;;;;;5052783;28;20040;-75
2022/09/06 08:04:04;;;;;;;5.88;4.47;;;;;;;;;;5051429;28;20051;-76
2022/09/06 08:06:31;;;;;;;4.03;3.55;;;;;;;;;;5052805;28;20111;-74
2022/09/06 08:08:57;;;;;;;10.50;4.50;;;;;;;;;;5053427;28;20410;-75
2022/09/06 08:11:25;;;;;;;12.38;3.80;;;;;;;;;;5053159;28;20016;-75
2022/09/06 08:13:53;;;;;;;4.85;4.13;;;;;;;;;;5051939;28;20025;-75
2022/09/06 08:16:19;;;;;;;4.63;4.07;;;;;;;;;;5052652;28;20029;-74
2022/09/06 08:18:49;;;;;;;9.10;4.22;;;;;;;;;;5052629;28;20029;-74
2022/09/06 08:21:15;;;;;;;5.53;3.90;;;;;;;;;;5052800;28;20069;-75
2022/09/06 08:23:44;;;;;;;9.30;4.00;;;;;;;;;;5051824;28;20025;-76
2022/09/06 08:26:10;;;;;;;5.47;4.30;;;;;;;;;;5052862;28;20025;-76
2022/09/06 08:28:35;;;;;;;6.70;4.10;;;;;;;;;;5052573;28;20075;-75
2022/09/06 08:31:05;;;;;;;4.33;3.87;;;;;;;;;;5051303;28;20025;-75
2022/09/06 08:33:31;;;;;;;5.32;3.97;;;;;;;;;;5052596;28;20310;-76
2022/09/06 08:35:57;;;;;;;5.55;3.80;;;;;;;;;;5052487;28;20036;-76
2022/09/06 08:38:23;;;;;;;7.80;4.30;;;;;;;;;;5052997;28;20021;-75
2022/09/06 08:40:49;;;;;;;4.40;3.95;;;;;;;;;;5051289;28;20167;-76
2022/09/06 08:43:18;;;;;;;5.07;3.95;;;;;;;;;;5051939;28;20029;-75
2022/09/06 08:45:46;;;;;;;6.25;3.88;;;;;;;;;;5051995;28;20021;-75
2022/09/06 08:48:12;;;;;;;7.40;4.45;;;;;;;;;;5052463;28;20025;-76
2022/09/06 08:50:43;;;;;;;6.25;4.03;;;;;;;;;;5052432;28;20020;-75
2022/09/06 08:53:17;;;;;;;6.63;4.30;;;;;;;;;;5052362;28;20036;-76
2022/09/06 08:55:58;;;;;;;6.07;3.95;;;;;;;;;;5052672;28;20029;-75
2022/09/06 08:58:36;;;;;;;6.70;4.00;;;;;;;;;;5053087;28;20375;-75
2022/09/06 09:01:10;;;;;;;4.60;3.50;;;;;;;;;;5056636;28;20029;-75
2022/09/06 09:03:37;;;;;;;5.38;3.70;;;;;;;;;;5056104;28;20477;-75
2022/09/06 09:06:05;;;;;;;4.32;3.92;;;;;;;;;;5054454;28;20509;-74
2022/09/06 09:08:39;;;;;;;6.88;3.80;;;;;;;;;;5054616;28;20017;-76
2022/09/06 09:11:09;;;;;;;6.72;4.10;;;;;;;;;;5056215;28;20195;-75
2022/09/06 09:13:58;;;;;;;10.85;3.83;;;;;;;;;;5056148;28;20021;-75
2022/09/06 09:16:23;;;;;;;7.13;4.18;;;;;;;;;;5055684;28;20033;-76
2022/09/06 09:18:52;;;;;;;6.57;3.90;;;;;;;;;;5055726;28;20043;-75
2022/09/06 09:21:21;;;;;;;5.35;4.18;;;;;;;;;;5055510;28;20463;-75
2022/09/06 09:23:52;;;;;;;4.35;3.60;;;;;;;;;;5055418;28;20035;-75
2022/09/06 09:26:19;;;;;;;7.47;3.80;;;;;;;;;;5055524;28;20039;-75
2022/09/06 09:29:13;;;;;;;5.97;3.67;;;;;;;;;;5055723;28;20108;-75
2022/09/06 09:31:41;;;;;;;6.25;3.80;;;;;;;;;;5055596;28;20080;-75
2022/09/06 09:34:12;;;;;;;7.93;4.00;;;;;;;;;;5054344;28;20029;-76
2022/09/06 09:36:37;;;;;;;5.50;3.90;;;;;;;;;;5054046;28;20031;-75
2022/09/06 09:39:09;;;;;;;4.72;3.65;;;;;;;;;;5055718;28;20107;-74
2022/09/06 09:41:37;;;;;;;10.23;4.03;;;;;;;;;;5054355;28;20023;-75
2022/09/06 09:44:06;;;;;;;5.00;3.83;;;;;;;;;;5055230;28;20051;-75
2022/09/06 09:46:33;;;;;;;7.00;3.97;;;;;;;;;;5055086;28;20021;-75
2022/09/06 09:49:13;;;;;;;6.60;4.10;;;;;;;;;;5055542;28;20464;-75
2022/09/06 09:51:44;;;;;;;6.70;4.15;;;;;;;;;;5055268;28;20063;-75
2022/09/06 09:54:12;;;;;;;5.75;3.67;;;;;;;;;;5053906;28;20075;-75
2022/09/06 09:56:42;;;;;;;5.28;3.92;;;;;;;;;;5055386;28;20025;-75
2022/09/06 09:59:18;;;;;;;6.35;4.15;;;;;;;;;;5055219;28;20029;-75
2022/09/06 10:01:43;;;;;;;7.45;3.78;;;;;;;;;;5055105;28;20391;-75
2022/09/06 10:04:10;;;;;;;6.68;3.85;;;;;;;;;;5055001;28;20036;-74
2022/09/06 10:06:36;;;;;;;7.35;4.03;;;;;;;;;;5054449;28;20047;-75
2022/09/06 10:09:20;;;;;;;6.03;3.90;;;;;;;;;;5052687;28;20032;-75
2022/09/06 10:11:56;;;;;;;4.85;3.53;;;;;;;;;;5054608;28;20032;-75
2022/09/06 10:14:41;;;;;;;6.38;3.90;;;;;;;;;;5054703;28;20039;-75
2022/09/06 10:17:07;;;;;;;7.63;3.90;;;;;;;;;;5054481;28;20029;-75
2022/09/06 10:19:41;;;;;;;6.93;3.78;;;;;;;;;;5054571;28;20029;-75
2022/09/06 10:22:19;;;;;;;9.38;3.80;;;;;;;;;;5054514;28;20025;-75
2022/09/06 10:25:07;;;;;;;11.18;3.80;;;;;;;;;;5054634;28;20035;-76
2022/09/06 10:27:33;;;;;;;4.30;3.55;;;;;;;;;;5054495;28;20394;-75
2022/09/06 10:30:05;;;;;;;7.28;3.63;;;;;;;;;;5052871;28;20167;-75
2022/09/06 10:32:46;;;;;;;5.10;3.58;;;;;;;;;;5052858;28;20127;-74
2022/09/06 10:35:18;;;;;;;7.50;3.88;;;;;;;;;;5053385;28;20024;-75
2022/09/06 10:37:48;;;;;;;5.90;3.70;;;;;;;;;;5054430;28;20083;-75
2022/09/06 10:40:32;;;;;;;4.18;3.28;;;;;;;;;;5053898;28;20037;-75
2022/09/06 10:43:00;;;;;;;6.28;3.90;;;;;;;;;;5054248;28;20035;-74
2022/09/06 10:45:47;;;;;;;6.07;3.70;;;;;;;;;;5052600;28;20032;-75
2022/09/06 10:48:34;;;;;;;7.13;4.10;;;;;;;;;;5053957;28;20029;-75
2022/09/06 10:51:11;;;;;;;5.85;3.70;;;;;;;;;;5052471;28;20119;-76
2022/09/06 10:53:47;;;;;;;15.70;3.75;;;;;;;;;;5053806;28;20104;-76
2022/09/06 10:56:21;;;;;;;8.73;3.42;;;;;;;;;;5053564;28;20127;-75
2022/09/06 10:58:58;;;;;;;7.20;4.07;;;;;;;;;;5052317;28;20071;-75
2022/09/06 11:01:59;;;;;;;3.85;3.30;;;;;;;;;;5053759;28;20051;-75
2022/09/06 11:04:39;;;;;;;4.75;3.45;;;;;;;;;;5053725;28;20032;-75
2022/09/06 11:07:16;;;;;;;6.65;3.85;;;;;;;;;;5053461;28;20120;-75
2022/09/06 11:09:48;;;;;;;4.47;3.70;;;;;;;;;;5053634;28;20109;-75
2022/09/06 11:12:22;;;;;;;6.05;3.83;;;;;;;;;;5053426;28;20032;-76
2022/09/06 11:14:47;;;;;;;5.72;3.70;;;;;;;;;;5053698;28;20425;-75
2022/09/06 11:17:55;;;;;;;7.37;3.63;;;;;;;;;;5053327;28;20025;-76
2022/09/06 11:20:31;;;;;;;5.30;3.65;;;;;;;;;;5052522;28;20274;-75
2022/09/06 11:23:47;;;;;;;7.15;3.35;;;;;;;;;;5053972;28;20025;-75
2022/09/06 11:26:37;;;;;;;5.93;3.72;;;;;;;;;;5052210;28;20064;-75
2022/09/06 11:29:08;;;;;;;8.73;4.10;;;;;;;;;;5053392;28;20115;-76
2022/09/06 11:31:48;;;;;;;7.78;3.75;;;;;;;;;;5053211;28;20027;-75
2022/09/06 11:34:33;;;;;;;6.07;3.58;;;;;;;;;;5053098;28;20017;-76
2022/09/06 11:37:26;;;;;;;5.18;3.53;;;;;;;;;;5051758;28;20017;-75
2022/09/06 11:40:22;;;;;;;5.57;3.88;;;;;;;;;;5053214;28;20482;-74
2022/09/06 11:42:47;;;;;;;6.20;3.60;;;;;;;;;;5052592;28;20037;-76
2022/09/06 11:45:37;;;;;;;7.97;3.97;;;;;;;;;;5053163;28;20478;-75
2022/09/06 11:48:25;;;;;;;3.92;3.42;;;;;;;;;;5053066;28;20494;-75
2022/09/06 11:50:53;;;;;;;4.68;3.75;;;;;;;;;;5052887;28;20028;-75
2022/09/06 11:53:21;;;;;;;6.00;3.75;;;;;;;;;;5052866;28;20056;-75
2022/09/06 11:55:48;;;;;;;6.75;3.67;;;;;;;;;;5051563;28;20016;-75
2022/09/06 11:58:14;;;;;;;4.25;3.60;;;;;;;;;;5051640;28;20029;-76
2022/09/06 12:00:39;;;;;;;4.97;3.67;;;;;;;;;;5053135;28;20025;-74
2022/09/06 12:03:06;;;;;;;6.10;3.83;;;;;;;;;;5053100;28;20044;-76
2022/09/06 12:05:32;;;;;;;4.32;3.53;;;;;;;;;;5052621;28;20790;-76
2022/09/06 12:08:20;;;;;;;8.23;3.70;;;;;;;;;;5053625;28;20029;-75
2022/09/06 12:10:49;;;;;;;5.75;3.67;;;;;;;;;;5051928;28;20021;-75
2022/09/06 12:13:33;;;;;;;5.25;3.88;;;;;;;;;;5053283;28;20028;-74
2022/09/06 12:15:59;;;;;;;;;;;;;;;;;;5053268;28;20025;-73
2022/09/06 12:18:53;;;;;;;4.97;3.33;;;;;;;;;;5053074;28;20003;-75
2022/09/06 12:21:40;;;;;;;6.65;3.55;;;;;;;;;;5053277;28;20028;-75
2022/09/06 12:24:25;;;;;;;9.77;3.90;;;;;;;;;;5053135;28;20025;-75
2022/09/06 12:27:10;;;;;;;6.57;3.60;;;;;;;;;;5052653;28;20032;-75
2022/09/06 12:29:38;;;;;;;4.70;3.45;;;;;;;;;;5052853;28;20075;-75
2022/09/06 12:32:04;;;;;;;7.20;3.58;;;;;;;;;;5052485;28;20104;-75
2022/09/06 12:34:33;;;;;;;3.83;3.42;;;;;;;;;;5056365;28;20055;-76
2022/09/06 12:37:07;;;;;;;4.30;3.53;;;;;;;;;;5056438;28;20078;-76
2022/09/06 12:39:33;;;;;;;7.53;3.67;;;;;;;;;;5056168;28;20389;-75
2022/09/06 12:42:01;;;;;;;6.15;3.88;;;;;;;;;;5056248;28;20047;-76
2022/09/06 12:44:35;;;;;;;5.63;3.63;;;;;;;;;;5056432;28;20024;-76
2022/09/06 12:47:05;;;;;;;5.47;3.75;;;;;;;;;;5056025;28;20390;-75
2022/09/06 12:49:34;;;;;;;5.30;3.60;;;;;;;;;;5056138;28;20094;-75
2022/09/06 12:52:12;;;;;;;5.80;3.60;;;;;;;;;;5056270;28;20032;-75
2022/09/06 12:54:47;;;;;;;7.03;3.40;;;;;;;;;;5056239;28;20411;-75
2022/09/06 12:57:18;;;;;;;8.35;4.03;;;;;;;;;;5056214;28;20024;-75
2022/09/06 12:59:54;;;;;;;5.60;3.50;;;;;;;;;;5056205;28;20135;-75
2022/09/06 13:02:26;;;;;;;5.07;3.60;;;;;;;;;;5055869;28;20401;-75
2022/09/06 13:05:00;;;;;;;4.85;3.35;;;;;;;;;;5055802;28;20017;-75
2022/09/06 13:07:27;;;;;;;5.57;3.80;;;;;;;;;;5054321;28;20036;-75
2022/09/06 13:09:55;;;;;;;6.65;3.65;;;;;;;;;;5054467;28;20025;-76
2022/09/06 13:12:32;;;;;;;4.35;3.70;;;;;;;;;;5054476;28;20111;-75
2022/09/06 13:15:03;;;;;;;6.45;3.28;;;;;;;;;;5055591;28;20025;-75
2022/09/06 13:17:29;;;;;;;5.63;3.70;;;;;;;;;;5054636;28;20021;-75
2022/09/06 13:19:56;;;;;;;4.82;3.42;;;;;;;;;;5054118;28;20051;-74
2022/09/06 13:22:39;;;;;;;8.07;4.00;;;;;;;;;;5054187;28;20025;-75
2022/09/06 13:25:11;;;;;;;7.32;3.97;;;;;;;;;;5055655;28;20025;-77
2022/09/06 13:27:36;;;;;;;6.82;3.67;;;;;;;;;;5056493;28;20032;-75
2022/09/06 13:30:07;;;;;;;9.73;3.55;;;;;;;;;;5055657;28;20017;-76
2022/09/06 13:32:34;;;;;;;5.80;3.63;;;;;;;;;;5055143;28;20037;-75
2022/09/06 13:35:01;;;;;;;5.82;3.65;;;;;;;;;;5055393;28;20044;-76
2022/09/06 13:37:32;;;;;;;7.38;3.63;;;;;;;;;;5055114;28;20025;-75
2022/09/06 13:39:58;;;;;;;9.85;3.78;;;;;;;;;;5053833;28;20061;-76
2022/09/06 13:42:35;;;;;;;8.25;3.65;;;;;;;;;;5053828;28;20079;-76
2022/09/06 13:45:22;;;;;;;16.02;3.17;;;;;;;;;;5054527;28;20041;-76
2022/09/06 13:47:47;;;;;;;8.80;2.58;;;;;;;;;;5053859;28;20057;-76
2022/09/06 13:50:13;;;;;;;7.55;2.55;;;;;;;;;;5055049;28;20043;-75
2022/09/06 13:52:38;;;;;;;8.53;2.47;;;;;;;;;;5055009;28;20029;-75
2022/09/06 13:55:03;;;;;;;5.13;2.63;;;;;;;;;;5054782;28;20762;-76
2022/09/06 13:57:29;;;;;;;8.45;3.03;;;;;;;;;;5053441;28;20763;-74
2022/09/06 13:59:54;;;;;;;11.73;3.30;;;;;;;;;;5053841;28;20078;-74
2022/09/06 14:02:20;;;;;;;8.10;3.88;;;;;;;;;;5052817;28;20277;-75
2022/09/06 14:04:45;;;;;;;8.63;4.57;;;;;;;;;;5051079;28;20040;-77
2022/09/06 14:07:10;;;;;;;15.50;5.00;;;;;;;;;;5049960;28;20025;-75
2022/09/06 14:09:36;;;;;;;13.40;4.82;;;;;;;;;;5050896;28;20029;-75
2022/09/06 14:12:02;;;;;;;7.85;5.65;;;;;;;;;;5050705;28;20035;-76
2022/09/06 14:14:30;;;;;;;9.13;5.70;;;;;;;;;;5051356;28;20028;-77
2022/09/06 14:16:55;;;;;;;10.05;5.75;;;;;;;;;;5050917;28;20033;-77
2022/09/06 14:19:24;;;;;;;9.75;5.35;;;;;;;;;;5050533;28;20039;-76
2022/09/06 14:21:49;;;;;;;8.75;5.57;;;;;;;;;;5052064;28;20036;-77
2022/09/06 14:24:15;;;;;;;11.00;6.05;;;;;;;;;;5052260;28;20039;-76
2022/09/06 14:26:41;;;;;;;8.90;6.10;;;;;;;;;;5051320;28;20374;-76
2022/09/06 14:29:07;;;;;;;7.68;5.95;;;;;;;;;;5051319;28;20025;-77
2022/09/06 14:31:32;;;;;;;8.32;6.57;;;;;;;;;;5049765;28;20083;-76
2022/09/06 14:33:58;;;;;;;10.65;6.78;;;;;;;;;;5051740;28;20124;-76
2022/09/06 14:36:26;;;;;;;9.45;6.38;;;;;;;;;;5051727;28;20032;-76
2022/09/06 14:38:52;;;;;;;10.45;6.45;;;;;;;;;;5051290;28;20477;-75
2022/09/06 14:41:19;;;;;;;9.88;6.30;;;;;;;;;;5051099;28;20032;-75
2022/09/06 14:43:49;;;;;;;9.77;6.57;;;;;;;;;;5051277;28;20104;-75
2022/09/06 14:46:16;;;;;;;9.32;5.95;;;;;;;;;;5050739;28;20035;-76
2022/09/06 14:48:42;;;;;;;8.30;6.38;;;;;;;;;;5050792;28;20052;-76
2022/09/06 14:51:19;;;;;;;8.07;5.70;;;;;;;;;;5050517;28;20068;-75
2022/09/06 14:53:45;;;;;;;9.57;5.60;;;;;;;;;;5050655;28;20029;-75
2022/09/06 14:56:11;;;;;;;11.73;6.05;;;;;;;;;;5049869;28;20071;-76
2022/09/06 14:58:38;;;;;;;6.88;5.32;;;;;;;;;;5048939;28;20029;-75